createdAt,value
2022-08-05T00:02:27.512Z,29.13
2022-08-05T00:04:56.168Z,29.12
2022-08-05T00:07:59.643Z,29.11
2022-08-05T00:10:10.252Z,29.13
2022-08-05T00:15:57.667Z,29.12
2022-08-05T00:18:05.099Z,29.12
2022-08-05T00:20:31.640Z,29.12
2022-08-05T00:23:02.482Z,29.11
2022-08-05T00:25:46.029Z,29.08
2022-08-05T00:28:13.423Z,29.11
2022-08-05T00:30:41.083Z,29.12
2022-08-05T00:34:41.985Z,29.10
2022-08-05T00:36:15.132Z,29.11
2022-08-05T00:38:44.258Z,29.09
2022-08-05T00:41:11.926Z,29.11
2022-08-05T00:43:47.192Z,29.11
2022-08-05T00:46:16.217Z,29.10
2022-08-05T00:48:50.657Z,29.11
2022-08-05T00:51:50.433Z,29.10
2022-08-05T00:54:06.172Z,29.07
2022-08-05T00:56:32.915Z,29.09
2022-08-05T00:59:00.244Z,29.08
2022-08-05T01:01:48.303Z,29.07
2022-08-05T01:04:15.825Z,29.08
2022-08-05T01:06:46.746Z,29.08
2022-08-05T01:09:17.274Z,29.07
2022-08-05T01:11:49.652Z,29.07
2022-08-05T01:14:41.805Z,29.06
2022-08-05T01:21:01.784Z,29.06
2022-08-05T01:23:57.994Z,29.06
2022-08-05T01:26:30.125Z,29.06
2022-08-05T01:29:14.101Z,29.06
2022-08-05T01:31:51.544Z,29.06
2022-08-05T01:34:27.980Z,29.06
2022-08-05T01:37:02.818Z,29.07
2022-08-05T01:39:46.750Z,29.03
2022-08-05T01:42:17.270Z,29.01
2022-08-05T01:44:54.386Z,29.05
2022-08-05T01:47:24.356Z,29.04
2022-08-05T01:50:08.456Z,29.02
2022-08-05T01:52:44.089Z,29.01
2022-08-05T01:55:14.690Z,29.02
2022-08-05T01:58:11.868Z,29.01
2022-08-05T02:00:34.743Z,29.00
2022-08-05T02:03:24.350Z,29.03
2022-08-05T02:05:59.800Z,29.01
2022-08-05T02:08:30.755Z,29.03
2022-08-05T02:11:11.966Z,29.00
2022-08-05T02:13:53.362Z,29.01
2022-08-05T02:16:38.901Z,29.00
2022-08-05T02:19:34.176Z,29.01
2022-08-05T02:22:25.512Z,29.00
2022-08-05T02:24:55.811Z,29.00
2022-08-05T02:27:29.996Z,29.01
2022-08-05T02:30:12.492Z,28.99
2022-08-05T02:32:42.484Z,29.00
2022-08-05T02:35:14.527Z,28.98
2022-08-05T02:37:53.833Z,28.97
2022-08-05T02:40:22.999Z,28.98
2022-08-05T02:42:54.028Z,28.98
2022-08-05T02:45:23.849Z,28.97
2022-08-05T02:48:06.505Z,28.97
2022-08-05T02:50:38.210Z,28.95
2022-08-05T02:53:11.753Z,28.91
2022-08-05T02:55:52.089Z,28.92
2022-08-05T02:58:23.198Z,28.94
2022-08-05T03:00:56.607Z,28.94
2022-08-05T03:03:23.844Z,28.95
2022-08-05T03:06:56.736Z,28.93
2022-08-05T03:08:42.543Z,28.91
2022-08-05T03:11:54.512Z,28.91
2022-08-05T03:14:13.827Z,28.91
2022-08-05T03:16:41.445Z,28.92
2022-08-05T03:19:16.987Z,28.93
2022-08-05T03:21:49.329Z,28.92
2022-08-05T03:24:29.550Z,28.92
2022-08-05T03:26:57.368Z,28.91
2022-08-05T03:29:24.268Z,28.92
2022-08-05T03:32:11.542Z,28.92
2022-08-05T03:34:38.525Z,28.91
2022-08-05T03:37:06.874Z,28.90
2022-08-05T03:39:38.059Z,28.90
2022-08-05T03:42:13.856Z,28.91
2022-08-05T03:44:42.548Z,28.89
2022-08-05T03:47:09.081Z,28.89
2022-08-05T03:49:51.526Z,28.90
2022-08-05T03:52:50.074Z,28.88
2022-08-05T03:56:04.749Z,28.89
2022-08-05T03:58:04.230Z,28.88
2022-08-05T04:00:32.420Z,28.87
2022-08-05T04:03:02.932Z,28.87
2022-08-05T04:05:34.646Z,28.87
2022-08-05T04:08:29.928Z,28.86
2022-08-05T04:10:53.468Z,28.86
2022-08-05T04:13:21.801Z,28.86
2022-08-05T04:15:52.799Z,28.75
2022-08-05T04:18:32.198Z,28.56
2022-08-05T04:21:01.893Z,28.46
2022-08-05T04:24:05.184Z,28.36
2022-08-05T04:26:17.556Z,28.30
2022-08-05T04:28:50.776Z,28.27
2022-08-05T04:31:18.310Z,28.23
2022-08-05T04:33:54.438Z,28.19
2022-08-05T04:36:46.610Z,28.16
2022-08-05T04:39:18.203Z,28.09
2022-08-05T04:41:45.700Z,28.06
2022-08-05T04:44:12.693Z,28.01
2022-08-05T04:46:39.234Z,28.00
2022-08-05T04:49:12.201Z,27.98
2022-08-05T04:51:41.204Z,27.94
2022-08-05T04:54:09.743Z,27.92
2022-08-05T04:56:36.865Z,27.90
2022-08-05T04:59:21.807Z,27.88
2022-08-05T05:02:07.177Z,27.85
2022-08-05T05:04:38.732Z,27.82
2022-08-05T05:07:15.928Z,27.74
2022-08-05T05:09:44.483Z,27.75
2022-08-05T05:12:11.549Z,27.74
2022-08-05T05:14:38.379Z,27.72
2022-08-05T05:17:22.769Z,27.71
2022-08-05T05:19:53.342Z,27.67
2022-08-05T05:22:24.283Z,27.67
2022-08-05T05:24:59.790Z,27.66
2022-08-05T05:27:45.716Z,27.63
2022-08-05T05:30:29.203Z,27.61
2022-08-05T05:33:00.066Z,27.59
2022-08-05T05:35:29.150Z,27.59
2022-08-05T05:38:09.126Z,27.55
2022-08-05T05:40:42.411Z,27.58
2022-08-05T05:43:11.832Z,27.55
2022-08-05T05:45:48.101Z,27.52
2022-08-05T05:48:16.155Z,27.50
2022-08-05T05:50:44.508Z,27.44
2022-08-05T05:53:22.138Z,27.44
2022-08-05T05:55:52.428Z,27.44
2022-08-05T05:58:31.639Z,27.44
2022-08-05T06:01:02.473Z,27.44
2022-08-05T06:04:00.732Z,27.41
2022-08-05T06:06:33.045Z,27.40
2022-08-05T06:09:07.528Z,27.40
2022-08-05T06:11:34.573Z,27.42
2022-08-05T06:14:02.189Z,27.40
2022-08-05T06:16:32.731Z,27.40
2022-08-05T06:19:02.052Z,27.38
2022-08-05T06:21:35.865Z,27.38
2022-08-05T06:24:07.798Z,27.37
2022-08-05T06:29:25.329Z,27.34
2022-08-05T06:34:53.543Z,27.35
2022-08-05T06:37:23.461Z,27.38
2022-08-05T06:40:10.636Z,27.33
2022-08-05T06:42:39.865Z,27.34
2022-08-05T06:45:08.455Z,27.30
2022-08-05T06:48:36.778Z,27.28
2022-08-05T06:50:23.067Z,27.28
2022-08-05T06:52:58.987Z,27.28
2022-08-05T06:55:31.384Z,27.28
2022-08-05T06:58:30.067Z,27.27
2022-08-05T07:00:50.819Z,27.27
2022-08-05T07:03:17.523Z,27.27
2022-08-05T07:05:46.458Z,27.26
2022-08-05T07:08:13.533Z,27.27
2022-08-05T07:10:52.280Z,27.27
2022-08-05T07:13:57.611Z,27.25
2022-08-05T07:17:59.113Z,27.27
2022-08-05T07:25:54.378Z,27.25
2022-08-05T07:28:09.709Z,27.26
2022-08-05T07:30:39.867Z,27.25
2022-08-05T07:33:16.204Z,27.24
2022-08-05T07:36:04.593Z,27.24
2022-08-05T07:38:43.561Z,27.23
2022-08-05T07:42:06.798Z,27.22
2022-08-05T07:44:04.344Z,27.23
2022-08-05T07:49:18.260Z,27.22
2022-08-05T07:51:53.269Z,27.26
2022-08-05T07:54:31.147Z,27.26
2022-08-05T07:57:17.627Z,27.25
2022-08-05T07:59:51.481Z,27.26
2022-08-05T08:04:59.211Z,27.24
2022-08-05T08:07:28.499Z,27.25
2022-08-05T08:09:55.424Z,27.25
2022-08-05T08:12:37.172Z,27.23
2022-08-05T08:15:15.364Z,27.17
2022-08-05T08:17:46.148Z,27.22
2022-08-05T08:20:44.014Z,27.21
2022-08-05T08:23:07.604Z,27.21
2022-08-05T08:25:59.830Z,27.22
2022-08-05T08:28:35.811Z,27.18
2022-08-05T08:31:04.434Z,27.16
2022-08-05T08:33:38.189Z,27.17
2022-08-05T08:36:29.788Z,27.14
2022-08-05T08:38:57.014Z,27.10
2022-08-05T08:41:51.255Z,27.12
2022-08-05T08:45:16.625Z,27.13
2022-08-05T08:47:47.149Z,27.10
2022-08-05T08:50:22.323Z,27.08
2022-08-05T08:52:47.390Z,27.07
2022-08-05T08:55:32.096Z,27.05
2022-08-05T08:58:06.826Z,27.05
2022-08-05T09:00:35.862Z,27.05
2022-08-05T09:03:05.650Z,27.04
2022-08-05T09:05:38.282Z,26.99
2022-08-05T09:08:19.996Z,26.97
2022-08-05T09:10:53.476Z,26.98
2022-08-05T09:13:20.235Z,26.96
2022-08-05T09:15:51.048Z,26.97
2022-08-05T09:18:17.938Z,26.97
2022-08-05T09:20:45.875Z,26.99
2022-08-05T09:23:19.902Z,27.07
2022-08-05T09:26:01.374Z,27.11
2022-08-05T09:28:33.405Z,27.22
2022-08-05T09:31:18.143Z,27.28
2022-08-05T09:33:59.124Z,27.31
2022-08-05T09:36:45.758Z,27.35
2022-08-05T09:39:23.520Z,27.36
2022-08-05T09:41:59.796Z,27.38
2022-08-05T09:44:42.310Z,27.40
2022-08-05T09:47:15.567Z,27.42
2022-08-05T09:52:44.908Z,27.43
2022-08-05T09:55:56.198Z,27.44
2022-08-05T09:58:00.039Z,27.47
2022-08-05T10:00:27.847Z,27.48
2022-08-05T10:02:58.072Z,27.48
2022-08-05T10:05:28.155Z,27.49
2022-08-05T10:08:35.703Z,27.50
2022-08-05T10:10:50.487Z,27.51
2022-08-05T10:13:26.843Z,27.51
2022-08-05T10:16:00.626Z,27.53
2022-08-05T10:18:31.943Z,27.54
2022-08-05T10:21:06.324Z,27.56
2022-08-05T10:23:59.824Z,27.56
2022-08-05T10:26:32.368Z,27.56
2022-08-05T10:28:59.724Z,27.56
2022-08-05T10:32:54.589Z,27.57
2022-08-05T10:34:13.764Z,27.57
2022-08-05T10:36:42.063Z,27.59
2022-08-05T10:39:24.824Z,27.58
2022-08-05T10:42:13.461Z,27.60
2022-08-05T10:44:45.208Z,27.60
2022-08-05T10:47:26.219Z,27.62
2022-08-05T10:50:20.526Z,27.63
2022-08-05T10:53:01.012Z,27.64
2022-08-05T10:55:28.592Z,27.64
2022-08-05T10:58:08.564Z,27.65
2022-08-05T11:00:35.630Z,27.67
2022-08-05T11:03:23.171Z,27.66
2022-08-05T11:06:15.532Z,27.68
2022-08-05T11:09:39.117Z,27.70
2022-08-05T11:12:24.383Z,27.71
2022-08-05T11:15:19.353Z,27.71
2022-08-05T11:17:57.318Z,27.73
2022-08-05T11:20:47.509Z,27.75
2022-08-05T11:24:02.722Z,27.75
2022-08-05T11:26:29.288Z,27.73
2022-08-05T11:29:11.450Z,27.76
2022-08-05T11:31:57.454Z,27.77
2022-08-05T11:34:37.774Z,27.78
2022-08-05T11:38:14.314Z,27.78
2022-08-05T11:39:55.408Z,27.78
2022-08-05T11:42:28.478Z,27.81
2022-08-05T11:45:03.495Z,27.81
2022-08-05T11:47:49.582Z,27.83
2022-08-05T11:50:17.763Z,27.85
2022-08-05T11:52:48.823Z,27.85
2022-08-05T11:55:16.202Z,27.88
2022-08-05T12:00:31.317Z,27.89
2022-08-05T12:02:58.001Z,27.91
2022-08-05T12:05:32.201Z,27.91
2022-08-05T12:08:10.331Z,27.92
2022-08-05T12:10:45.187Z,27.94
2022-08-05T12:13:27.899Z,27.95
2022-08-05T12:16:14.203Z,27.98
2022-08-05T12:18:42.741Z,27.99
2022-08-05T12:21:32.232Z,28.01
2022-08-05T12:24:17.177Z,28.03
2022-08-05T12:26:52.941Z,28.03
2022-08-05T12:29:23.004Z,28.04
2022-08-05T12:31:53.944Z,28.05
2022-08-05T12:34:26.671Z,28.08
2022-08-05T12:36:54.662Z,28.10
2022-08-05T12:39:23.506Z,28.12
2022-08-05T12:42:02.149Z,28.12
2022-08-05T12:44:34.058Z,28.14
2022-08-05T12:47:02.059Z,28.16
2022-08-05T12:50:04.530Z,28.19
2022-08-05T12:52:42.233Z,28.21
2022-08-05T12:55:25.066Z,28.20
2022-08-05T12:58:50.215Z,28.23
2022-08-05T13:02:03.552Z,28.26
2022-08-05T13:03:41.371Z,28.26
2022-08-05T13:06:12.467Z,28.25
2022-08-05T13:08:39.988Z,28.28
2022-08-05T13:11:07.894Z,28.28
2022-08-05T13:14:05.133Z,28.30
2022-08-05T13:16:27.728Z,28.31
2022-08-05T13:18:58.639Z,28.33
2022-08-05T13:21:28.595Z,28.34
2022-08-05T13:24:08.757Z,28.35
2022-08-05T13:26:35.823Z,28.36
2022-08-05T13:29:02.435Z,28.37
2022-08-05T13:31:33.826Z,28.38
2022-08-05T13:34:22.109Z,28.38
2022-08-05T13:36:50.505Z,28.37
2022-08-05T13:40:13.197Z,28.38
2022-08-05T13:42:04.276Z,28.41
2022-08-05T13:44:32.694Z,28.39
2022-08-05T13:47:04.930Z,28.41
2022-08-05T13:49:35.703Z,28.41
2022-08-05T13:52:16.679Z,28.43
2022-08-05T13:54:43.215Z,28.43
2022-08-05T13:57:20.845Z,28.44
2022-08-05T13:59:57.235Z,28.45
2022-08-05T14:05:19.616Z,28.48
2022-08-05T14:08:03.287Z,28.50
2022-08-05T14:10:35.550Z,28.49
2022-08-05T14:13:04.163Z,28.50
2022-08-05T14:18:23.935Z,28.54
2022-08-05T14:20:54.389Z,28.55
2022-08-05T14:23:26.416Z,28.56
2022-08-05T14:25:59.127Z,28.57
2022-08-05T14:28:30.155Z,28.59
2022-08-05T14:31:02.772Z,28.58
2022-08-05T14:33:32.469Z,28.58
2022-08-05T14:36:20.630Z,28.60
2022-08-05T14:38:48.205Z,28.62
2022-08-05T14:44:14.447Z,28.64
2022-08-05T14:46:47.369Z,28.67
2022-08-05T14:49:13.887Z,28.67
2022-08-05T14:51:42.428Z,28.67
2022-08-05T14:54:29.881Z,28.69
2022-08-05T14:56:58.465Z,28.72
2022-08-05T14:59:29.717Z,28.71
2022-08-05T15:04:44.969Z,28.75
2022-08-05T15:08:06.390Z,28.77
2022-08-05T15:10:01.592Z,28.78
2022-08-05T15:12:41.036Z,28.79
2022-08-05T15:15:16.915Z,28.77
2022-08-05T15:18:03.699Z,28.81
2022-08-05T15:20:32.368Z,28.80
2022-08-05T15:28:36.189Z,28.82
2022-08-05T15:34:05.507Z,28.84
2022-08-05T15:36:36.644Z,28.87
2022-08-05T15:41:55.410Z,28.86
2022-08-05T15:47:09.983Z,28.90
2022-08-05T15:49:40.886Z,28.89
2022-08-05T15:52:29.622Z,28.89
2022-08-05T15:55:16.230Z,28.91
2022-08-05T15:57:43.699Z,28.93
2022-08-05T16:00:12.313Z,28.92
2022-08-05T16:02:43.457Z,28.93
2022-08-05T16:05:17.658Z,28.96
2022-08-05T16:07:49.212Z,28.97
2022-08-05T16:10:16.376Z,28.98
2022-08-05T16:12:50.545Z,28.98
2022-08-05T16:15:20.133Z,28.99
2022-08-05T16:17:57.556Z,29.00
2022-08-05T16:20:33.382Z,29.00
2022-08-05T16:23:00.923Z,29.00
2022-08-05T16:25:33.797Z,29.03
2022-08-05T16:28:18.203Z,29.06
2022-08-05T16:33:28.541Z,29.07
2022-08-05T16:36:08.261Z,29.05
2022-08-05T16:38:35.405Z,29.06
2022-08-05T16:41:02.632Z,29.09
2022-08-05T16:43:49.113Z,29.07
2022-08-05T16:46:23.659Z,29.07
2022-08-05T16:48:51.480Z,29.09
2022-08-05T16:51:18.830Z,29.06
2022-08-05T16:54:05.770Z,29.06
2022-08-05T16:59:19.004Z,29.13
2022-08-05T17:01:53.057Z,29.11
2022-08-05T17:04:26.992Z,29.11
2022-08-05T17:06:55.427Z,29.10
2022-08-05T17:09:22.942Z,29.11
2022-08-05T17:17:14.952Z,29.12
2022-08-05T17:19:45.544Z,29.12
2022-08-05T17:22:25.480Z,29.13
2022-08-05T17:25:02.206Z,29.13
2022-08-05T17:27:48.841Z,29.11
2022-08-05T17:30:28.275Z,29.14
2022-08-05T17:32:55.639Z,29.15
2022-08-05T17:35:22.291Z,29.12
2022-08-05T17:37:49.042Z,29.13
2022-08-05T17:40:18.712Z,29.15
2022-08-05T17:42:50.899Z,29.11
2022-08-05T17:48:00.895Z,29.15
2022-08-05T17:50:30.484Z,29.15
2022-08-05T17:53:11.628Z,29.15
2022-08-05T17:55:40.133Z,29.15
2022-08-05T17:58:11.125Z,29.14
2022-08-05T18:00:44.970Z,29.14
2022-08-05T18:03:24.125Z,29.12
2022-08-05T18:06:04.590Z,29.11
2022-08-05T18:08:33.550Z,29.12
2022-08-05T18:11:00.592Z,29.14
2022-08-05T18:13:36.415Z,29.14
2022-08-05T18:16:04.129Z,29.11
2022-08-05T18:18:33.750Z,29.12
2022-08-05T18:21:13.361Z,29.10
2022-08-05T18:23:47.265Z,29.12
2022-08-05T18:26:13.883Z,29.11
2022-08-05T18:28:44.774Z,29.11
2022-08-05T18:33:59.583Z,29.07
2022-08-05T18:36:28.214Z,29.09
2022-08-05T18:38:55.318Z,29.09
2022-08-05T18:41:55.077Z,29.09
2022-08-05T18:44:33.307Z,29.09
2022-08-05T18:47:03.816Z,29.07
2022-08-05T18:52:33.565Z,29.06
2022-08-05T18:55:06.180Z,29.04
2022-08-05T18:57:49.908Z,29.03
2022-08-05T19:03:04.274Z,29.03
2022-08-05T19:06:12.764Z,29.03
2022-08-05T19:08:17.567Z,29.04
2022-08-05T19:10:45.548Z,29.00
2022-08-05T19:13:15.907Z,29.02
2022-08-05T19:15:57.443Z,29.03
2022-08-05T19:18:26.992Z,28.99
2022-08-05T19:20:54.309Z,28.99
2022-08-05T19:24:03.604Z,28.96
2022-08-05T19:26:09.534Z,28.99
2022-08-05T19:28:42.197Z,28.99
2022-08-05T19:31:22.991Z,28.98
2022-08-05T19:33:56.305Z,28.95
2022-08-05T19:36:29.277Z,28.95
2022-08-05T19:38:58.874Z,28.95
2022-08-05T19:44:13.479Z,28.97
2022-08-05T19:46:41.086Z,28.95
2022-08-05T19:49:16.458Z,28.96
2022-08-05T19:52:13.079Z,28.95
2022-08-05T19:54:40.540Z,28.95
2022-08-05T20:00:02.098Z,28.92
2022-08-05T20:02:22.211Z,28.92
2022-08-05T20:04:50.820Z,28.93
2022-08-05T20:07:48.050Z,28.92
2022-08-05T20:10:11.442Z,28.90
2022-08-05T20:12:39.852Z,28.90
2022-08-05T20:15:15.890Z,28.93
2022-08-05T20:18:09.665Z,28.92
2022-08-05T20:20:38.044Z,28.92
2022-08-05T20:23:05.415Z,28.92
2022-08-05T20:28:14.545Z,28.92
2022-08-05T20:30:41.362Z,28.92
2022-08-05T20:33:08.735Z,28.89
2022-08-05T20:35:40.661Z,28.90
2022-08-05T20:38:14.451Z,28.89
2022-08-05T20:40:50.526Z,28.89
2022-08-05T20:43:17.554Z,28.88
2022-08-05T20:46:04.241Z,28.89
2022-08-05T20:48:30.861Z,28.87
2022-08-05T20:50:57.396Z,28.87
2022-08-05T20:53:37.068Z,28.86
2022-08-05T20:56:09.698Z,28.86
2022-08-05T20:58:36.935Z,28.87
2022-08-05T21:01:04.563Z,28.85
2022-08-05T21:03:34.743Z,28.84
2022-08-05T21:06:01.870Z,28.84
2022-08-05T21:08:41.684Z,28.83
2022-08-05T21:12:07.703Z,28.80
2022-08-05T21:14:01.534Z,28.82
2022-08-05T21:16:29.849Z,28.84
2022-08-05T21:19:00.154Z,28.82
2022-08-05T21:21:43.901Z,28.80
2022-08-05T21:26:58.683Z,28.82
2022-08-05T21:29:31.922Z,28.82
2022-08-05T21:31:59.536Z,28.80
2022-08-05T21:34:26.057Z,28.81
2022-08-05T21:36:54.973Z,28.78
2022-08-05T21:44:44.813Z,28.75
2022-08-05T21:47:32.885Z,28.78
2022-08-05T21:50:01.280Z,28.77
2022-08-05T21:52:36.168Z,28.73
2022-08-05T21:55:13.834Z,28.72
2022-08-05T21:57:42.613Z,28.73
2022-08-05T22:00:11.752Z,28.73
2022-08-05T22:02:38.958Z,28.70
2022-08-05T22:05:06.088Z,28.70
2022-08-05T22:07:54.199Z,28.68
2022-08-05T22:10:26.757Z,28.68
2022-08-05T22:14:05.862Z,28.67
2022-08-05T22:16:01.097Z,28.69
2022-08-05T22:18:34.443Z,28.69
2022-08-05T22:21:03.981Z,28.67
2022-08-05T22:24:02.299Z,28.67
2022-08-05T22:26:49.757Z,28.65
2022-08-05T22:29:17.446Z,28.66
2022-08-05T22:31:45.737Z,28.66
2022-08-05T22:34:28.199Z,28.63
2022-08-05T22:36:58.425Z,28.62
2022-08-05T22:39:30.977Z,28.61
2022-08-05T22:42:11.767Z,28.62
2022-08-05T22:44:53.475Z,28.62
2022-08-05T22:47:29.285Z,28.61
2022-08-05T22:50:21.041Z,28.60
2022-08-05T22:52:44.613Z,28.61
2022-08-05T22:55:18.944Z,28.59
2022-08-05T22:57:47.196Z,28.59
2022-08-05T23:00:17.757Z,28.58
2022-08-05T23:02:49.089Z,28.55
2022-08-05T23:05:16.565Z,28.59
2022-08-05T23:07:48.262Z,28.59
2022-08-05T23:10:20.174Z,28.57
2022-08-05T23:12:54.361Z,28.54
2022-08-05T23:15:26.982Z,28.55
2022-08-05T23:18:00.944Z,28.54
2022-08-05T23:20:30.311Z,28.53
2022-08-05T23:23:08.068Z,28.51
2022-08-05T23:25:52.294Z,28.52
2022-08-05T23:28:22.052Z,28.53
2022-08-05T23:34:04.060Z,28.50
2022-08-05T23:36:16.339Z,28.50
2022-08-05T23:38:43.505Z,28.50
2022-08-05T23:41:10.591Z,28.46
2022-08-05T23:44:06.379Z,28.47
2022-08-05T23:46:24.215Z,28.45
2022-08-05T23:51:55.214Z,28.44
2022-08-05T23:54:30.284Z,28.43
2022-08-05T23:57:03.409Z,28.43
